Time;durP1;ratioP1;P1;durP2;ratioP2;P2;SDS_P1;SDS_P2;PMS_P1;PMS_P2;Temp;Humidity;BMP_temperature;BMP_pressure;BME280_temperature;BME280_humidity;BME280_pressure;Samples;Min_cycle;Max_cycle;Signal;HPM_P1;HPM_P2
2022/02/06 00:00:30;;;;;;;14.83;9.93;;;;;21.10;100172.00;;;;2053349;28;20246;-47
2022/02/06 00:01:33;;;;;;;12.40;9.75;;;;;21.10;100181.00;;;;2053119;28;20306;-46
2022/02/06 00:02:37;;;;;;;14.73;10.82;;;;;21.10;100175.00;;;;2051523;28;20688;-46
2022/02/06 00:03:38;;;;;;;11.02;8.70;;;;;21.10;100173.00;;;;2053415;28;20227;-46
2022/02/06 00:04:41;;;;;;;10.90;9.38;;;;;21.10;100159.00;;;;2046111;28;20751;-45
2022/02/06 00:05:43;;;;;;;13.15;9.27;;;;;21.10;100163.00;;;;2044237;28;20759;-46
2022/02/06 00:06:43;;;;;;;11.45;8.80;;;;;21.10;100147.00;;;;2043634;28;20216;-46
2022/02/06 00:07:46;;;;;;;12.00;9.07;;;;;21.10;100141.00;;;;2049341;28;20258;-46
2022/02/06 00:08:47;;;;;;;12.15;8.13;;;;;21.10;100160.00;;;;2054367;28;20274;-46
2022/02/06 00:09:48;;;;;;;11.83;9.30;;;;;21.10;100143.00;;;;2054100;28;20293;-46
2022/02/06 00:10:48;;;;;;;11.73;9.03;;;;;21.10;100147.00;;;;2053577;28;20659;-46
2022/02/06 00:11:48;;;;;;;10.80;7.80;;;;;21.10;100145.00;;;;2054320;28;20306;-46
2022/02/06 00:12:49;;;;;;;10.83;8.17;;;;;21.10;100150.00;;;;2054154;28;20227;-46
2022/02/06 00:13:49;;;;;;;9.77;7.43;;;;;21.10;100142.00;;;;2047733;28;20220;-46
2022/02/06 00:14:50;;;;;;;13.20;8.83;;;;;21.10;100148.00;;;;2046253;28;20212;-46
2022/02/06 00:15:50;;;;;;;10.40;7.73;;;;;21.10;100131.00;;;;2039731;28;20239;-46
2022/02/06 00:16:51;;;;;;;10.80;8.10;;;;;21.10;100174.00;;;;2049788;28;20463;-46
2022/02/06 00:17:51;;;;;;;10.03;6.63;;;;;21.10;100146.00;;;;2053779;28;20722;-47
2022/02/06 00:18:51;;;;;;;10.03;6.80;;;;;21.10;100141.00;;;;2052809;28;20212;-47
2022/02/06 00:19:52;;;;;;;8.50;6.50;;;;;21.10;100132.00;;;;2054541;28;20226;-46
2022/02/06 00:20:57;;;;;;;10.17;6.70;;;;;21.10;100131.00;;;;2053452;28;20585;-46
2022/02/06 00:21:57;;;;;;;12.40;8.02;;;;;20.90;100138.00;;;;2054379;28;20226;-46
2022/02/06 00:23:02;;;;;;;10.50;7.20;;;;;21.10;100130.00;;;;2047571;28;20220;-46
2022/02/06 00:24:05;;;;;;;9.85;7.10;;;;;21.10;100138.00;;;;2048083;28;20231;-46
2022/02/06 00:25:12;;;;;;;8.80;6.57;;;;;21.10;100144.00;;;;2054344;28;20223;-47
2022/02/06 00:26:24;;;;;;;10.82;7.72;;;;;21.10;100134.00;;;;2054399;28;20711;-46
2022/02/06 00:27:34;;;;;;;8.60;6.57;;;;;21.10;100131.00;;;;2054315;28;20216;-46
2022/02/06 00:29:57;;;;;;;10.20;6.10;;;;;21.10;100108.00;;;;2054267;28;20215;-48
2022/02/06 00:31:12;;;;;;;9.93;6.80;;;;;21.00;100087.00;;;;2052998;28;20218;-46
2022/02/06 00:32:27;;;;;;;9.48;6.15;;;;;21.00;100130.00;;;;2053801;28;20215;-45
2022/02/06 00:39:23;;;;;;;8.07;5.43;;;;;21.00;100116.00;;;;2053629;28;20726;-44
2022/02/06 00:40:34;;;;;;;8.50;5.60;;;;;21.00;100115.00;;;;2052824;28;20220;-44
2022/02/06 00:41:35;;;;;;;6.85;5.30;;;;;21.00;100109.00;;;;2057133;28;20265;-45
2022/02/06 00:42:36;;;;;;;7.43;4.80;;;;;21.00;100098.00;;;;2060432;28;20277;-45
2022/02/06 00:43:36;;;;;;;7.73;5.30;;;;;21.00;100092.00;;;;2051043;28;20290;-44
2022/02/06 00:44:36;;;;;;;5.13;4.00;;;;;21.00;100116.00;;;;2053783;28;20211;-44
2022/02/06 00:45:37;;;;;;;7.33;4.90;;;;;21.00;100099.00;;;;2062115;28;20214;-46
2022/02/06 00:46:39;;;;;;;7.10;4.80;;;;;21.00;100088.00;;;;2061770;28;20250;-45
2022/02/06 00:47:40;;;;;;;7.60;4.80;;;;;20.30;100110.00;;;;2061699;28;20754;-45
2022/02/06 00:48:44;;;;;;;8.27;5.55;;;;;21.00;100033.00;;;;2054581;28;20207;-45
2022/02/06 00:49:46;;;;;;;6.22;4.47;;;;;21.00;100102.00;;;;2053420;28;20619;-45
2022/02/06 00:50:57;;;;;;;5.82;4.15;;;;;21.00;100100.00;;;;2052142;28;20214;-45
2022/02/06 00:52:10;;;;;;;4.95;4.25;;;;;21.00;100096.00;;;;2053814;28;20219;-45
2022/02/06 00:53:17;;;;;;;6.20;4.85;;;;;20.90;100083.00;;;;2061056;28;20609;-45
2022/02/06 00:54:17;;;;;;;6.18;4.45;;;;;21.00;100083.00;;;;2061637;28;20222;-46
2022/02/06 00:55:17;;;;;;;5.17;4.47;;;;;21.00;100081.00;;;;2061596;28;20245;-45
2022/02/06 00:56:18;;;;;;;5.97;4.60;;;;;20.90;100087.00;;;;2062305;28;20215;-46
2022/02/06 00:57:20;;;;;;;5.93;4.40;;;;;21.00;100085.00;;;;2061244;28;20253;-45
2022/02/06 00:58:21;;;;;;;5.13;4.07;;;;;20.90;100081.00;;;;2061563;28;20586;-45
2022/02/06 00:59:21;;;;;;;5.83;4.60;;;;;20.80;100086.00;;;;2060552;28;20254;-45
2022/02/06 01:00:23;;;;;;;7.50;4.77;;;;;21.00;100079.00;;;;2057061;28;20264;-45
2022/02/06 01:01:24;;;;;;;5.25;4.10;;;;;20.90;100058.00;;;;2061025;28;20289;-46
2022/02/06 01:02:24;;;;;;;6.00;4.37;;;;;20.90;100061.00;;;;2061627;28;20656;-45
2022/02/06 01:03:24;;;;;;;6.13;4.10;;;;;20.90;100075.00;;;;2060663;28;20238;-46
2022/02/06 01:04:28;;;;;;;4.07;3.57;;;;;20.90;100068.00;;;;2058018;28;20485;-45
2022/02/06 01:05:28;;;;;;;5.50;3.55;;;;;20.90;100068.00;;;;2059008;28;20647;-45
2022/02/06 01:06:29;;;;;;;6.50;4.17;;;;;20.90;100058.00;;;;2062031;28;20215;-45
2022/02/06 01:07:29;;;;;;;5.47;3.78;;;;;20.90;100047.00;;;;2060712;28;20211;-45
2022/02/06 01:08:30;;;;;;;5.53;4.20;;;;;20.90;100058.00;;;;2062175;28;20215;-45
2022/02/06 01:09:31;;;;;;;6.93;4.03;;;;;20.90;100059.00;;;;2060499;28;20457;-45
2022/02/06 01:10:32;;;;;;;6.27;4.10;;;;;20.90;100063.00;;;;2061122;28;20215;-45
2022/02/06 01:11:35;;;;;;;4.97;3.57;;;;;20.90;100053.00;;;;2061789;28;20476;-44
2022/02/06 01:12:38;;;;;;;5.97;4.22;;;;;20.90;100042.00;;;;2061910;28;20206;-45
2022/02/06 01:14:38;;;;;;;5.40;3.40;;;;;20.90;100021.00;;;;2061217;28;20211;-46
2022/02/06 01:15:10;;;;;;;5.45;3.17;;;;;20.90;100035.00;;;;2061340;28;20226;-45
2022/02/06 01:16:17;;;;;;;4.25;3.50;;;;;20.90;100040.00;;;;2061938;28;20277;-45
2022/02/06 01:18:24;;;;;;;4.68;3.42;;;;;20.80;100024.00;;;;2054490;28;20778;-45
2022/02/06 01:19:33;;;;;;;5.55;3.10;;;;;20.90;100053.00;;;;2058608;28;20218;-46
2022/02/06 01:20:39;;;;;;;6.10;3.72;;;;;20.90;100040.00;;;;2061184;28;20203;-45
2022/02/06 01:21:56;;;;;;;5.75;3.38;;;;;20.90;100045.00;;;;2062022;28;20372;-45
2022/02/06 01:23:10;;;;;;;3.67;3.00;;;;;20.90;100025.00;;;;2061618;28;20203;-45
2022/02/06 01:24:18;;;;;;;4.20;2.70;;;;;20.90;100024.00;;;;2052927;28;20732;-45
2022/02/06 01:25:31;;;;;;;3.75;3.10;;;;;20.80;100026.00;;;;2053822;28;20816;-45
2022/02/06 01:27:48;;;;;;;5.38;3.15;;;;;20.80;100017.00;;;;2059220;28;20222;-45
2022/02/06 01:28:54;;;;;;;4.35;2.90;;;;;20.80;100024.00;;;;2061987;28;20239;-45
2022/02/06 01:30:00;;;;;;;5.45;3.45;;;;;20.80;100016.00;;;;2062269;28;20322;-45
2022/02/06 01:31:25;;;;;;;5.05;3.03;;;;;20.80;100002.00;;;;2061361;28;20238;-45
2022/02/06 01:32:32;;;;;;;3.92;2.80;;;;;20.80;100010.00;;;;2061302;28;20218;-45
2022/02/06 01:33:38;;;;;;;5.75;3.40;;;;;20.80;100025.00;;;;2062245;28;20206;-45
2022/02/06 01:34:48;;;;;;;4.13;2.85;;;;;20.80;100016.00;;;;2061829;28;20638;-45
2022/02/06 01:36:00;;;;;;;3.75;2.80;;;;;20.80;100000.00;;;;2062158;28;20210;-44
2022/02/06 01:37:18;;;;;;;4.43;2.80;;;;;20.80;100020.00;;;;2062334;28;20330;-44
2022/02/06 01:38:28;;;;;;;3.28;2.58;;;;;20.80;100043.00;;;;2061811;28;20230;-45
2022/02/06 01:40:41;;;;;;;5.03;3.00;;;;;20.80;100004.00;;;;2054879;28;20250;-45
2022/02/06 01:41:44;;;;;;;3.70;2.88;;;;;20.80;100017.00;;;;2053803;28;20228;-45
2022/02/06 01:42:53;;;;;;;4.63;2.90;;;;;20.80;100015.00;;;;2052298;28;20223;-45
2022/02/06 01:44:02;;;;;;;5.80;3.35;;;;;20.80;99999.00;;;;2053961;28;20247;-45
2022/02/06 02:01:33;;;;;;;3.25;2.08;;;;;20.70;99967.00;;;;2060516;28;20218;-45
2022/02/06 02:09:26;;;;;;;3.53;2.08;;;;;20.70;99972.00;;;;2027421;29;20218;-45
2022/02/06 02:12:06;;;;;;;3.60;1.95;;;;;20.70;99958.00;;;;2058989;28;20218;-46
2022/02/06 02:15:44;;;;;;;3.58;2.20;;;;;20.70;99950.00;;;;2061831;28;20223;-46
2022/02/06 02:17:34;;;;;;;4.93;2.33;;;;;20.70;99960.00;;;;2061834;28;20254;-45
2022/02/06 02:19:10;;;;;;;4.25;2.10;;;;;20.50;99937.00;;;;2061472;28;20223;-45
2022/02/06 02:20:41;;;;;;;5.82;2.17;;;;;20.70;99943.00;;;;2059399;28;20222;-45
2022/02/06 02:24:25;;;;;;;3.33;2.25;;;;;20.70;99941.00;;;;2054223;28;20220;-44
2022/02/06 02:29:48;;;;;;;3.15;2.10;;;;;20.70;99929.00;;;;2059358;28;20218;-45
2022/02/06 02:46:57;;;;;;;3.95;2.00;;;;;20.60;99896.00;;;;2062828;28;20229;-45
2022/02/06 02:48:03;;;;;;;3.35;1.90;;;;;20.60;99892.00;;;;2060078;28;20268;-45
2022/02/06 02:49:05;;;;;;;4.55;1.70;;;;;20.60;99891.00;;;;2062766;28;20720;-45
2022/02/06 02:50:13;;;;;;;3.47;1.95;;;;;20.60;99890.00;;;;2060227;28;20225;-45
2022/02/06 02:51:13;;;;;;;4.47;2.25;;;;;20.60;99905.00;;;;2052810;28;20578;-45
2022/02/06 02:52:23;;;;;;;4.20;1.90;;;;;20.60;99896.00;;;;2053912;28;20240;-45
2022/02/06 02:53:30;;;;;;;4.45;1.88;;;;;20.60;99876.00;;;;2053086;28;20898;-45
2022/02/06 02:54:33;;;;;;;2.95;1.75;;;;;20.60;99898.00;;;;2053474;28;20215;-45
2022/02/06 02:57:25;;;;;;;3.15;2.13;;;;;20.60;99868.00;;;;2053793;28;20216;-45
2022/02/06 02:58:44;;;;;;;4.10;2.10;;;;;20.50;99864.00;;;;2054219;28;20211;-46
2022/02/06 03:00:18;;;;;;;3.90;2.10;;;;;20.60;99870.00;;;;2054660;28;20223;-46
2022/02/06 03:01:29;;;;;;;3.55;2.17;;;;;20.60;99865.00;;;;2059806;28;20217;-45
2022/02/06 03:02:29;;;;;;;3.20;1.90;;;;;20.60;99870.00;;;;2058252;28;20207;-46
2022/02/06 03:03:33;;;;;;;3.43;1.83;;;;;20.60;99859.00;;;;2063153;28;20237;-44
2022/02/06 03:04:34;;;;;;;3.20;1.83;;;;;20.50;99860.00;;;;2055613;28;20259;-45
2022/02/06 03:05:38;;;;;;;2.80;1.77;;;;;20.50;99855.00;;;;2054492;28;20604;-45
2022/02/06 03:06:40;;;;;;;5.30;2.38;;;;;20.50;99864.00;;;;2060008;28;20222;-45
2022/02/06 03:07:40;;;;;;;3.57;2.10;;;;;20.50;99850.00;;;;2062553;28;20223;-45
2022/02/06 03:08:42;;;;;;;3.20;1.67;;;;;20.50;99848.00;;;;2061870;28;20308;-45
2022/02/06 03:09:44;;;;;;;4.35;1.98;;;;;20.60;99852.00;;;;2062186;28;20237;-45
2022/02/06 03:10:45;;;;;;;2.97;1.75;;;;;20.50;99832.00;;;;2062121;28;20215;-45
2022/02/06 03:11:45;;;;;;;3.40;2.07;;;;;20.50;99856.00;;;;2063011;28;20210;-46
2022/02/06 03:12:50;;;;;;;2.47;1.50;;;;;20.50;99842.00;;;;2063153;28;20842;-46
2022/02/06 03:14:03;;;;;;;3.10;1.75;;;;;20.50;99849.00;;;;2061581;28;20590;-45
2022/02/06 03:15:19;;;;;;;2.72;1.58;;;;;20.50;99846.00;;;;2054788;28;20557;-45
2022/02/06 03:16:27;;;;;;;3.10;1.70;;;;;20.50;99839.00;;;;2055035;28;20207;-45
2022/02/06 03:17:44;;;;;;;3.20;1.77;;;;;20.50;99842.00;;;;2057339;28;20686;-45
2022/02/06 03:18:57;;;;;;;2.80;1.63;;;;;20.50;99839.00;;;;2060058;28;20222;-45
2022/02/06 03:20:05;;;;;;;4.30;2.08;;;;;20.50;99846.00;;;;2061049;28;20250;-46
2022/02/06 03:21:10;;;;;;;2.70;1.60;;;;;20.50;99827.00;;;;2062311;28;20285;-45
2022/02/06 03:22:19;;;;;;;3.58;2.00;;;;;20.50;99837.00;;;;2061709;28;20227;-45
2022/02/06 03:23:20;;;;;;;2.80;1.90;;;;;20.50;99832.00;;;;2060578;28;20642;-45
2022/02/06 03:24:22;;;;;;;3.70;1.90;;;;;20.50;99841.00;;;;2062309;28;20218;-45
2022/02/06 03:25:25;;;;;;;3.47;1.90;;;;;20.50;99832.00;;;;2062766;28;20219;-45
2022/02/06 03:26:25;;;;;;;3.17;1.70;;;;;20.50;99826.00;;;;2061996;28;20250;-47
2022/02/06 03:27:25;;;;;;;3.90;2.00;;;;;20.50;99830.00;;;;2061999;28;20222;-45
2022/02/06 03:28:26;;;;;;;2.83;1.50;;;;;20.50;99822.00;;;;2059596;28;20663;-47
2022/02/06 03:29:26;;;;;;;2.73;1.77;;;;;20.50;99813.00;;;;2055467;28;20661;-46
2022/02/06 03:30:33;;;;;;;2.90;1.57;;;;;20.50;99823.00;;;;2053885;28;20215;-45
2022/02/06 03:31:34;;;;;;;4.22;2.30;;;;;20.50;99817.00;;;;2053960;28;20216;-45
2022/02/06 03:32:35;;;;;;;3.35;1.70;;;;;20.50;99825.00;;;;2051115;28;20713;-45
2022/02/06 03:33:36;;;;;;;2.78;1.60;;;;;20.30;99826.00;;;;2053213;28;20644;-45
2022/02/06 03:34:36;;;;;;;3.10;1.77;;;;;20.50;99822.00;;;;2054074;28;20321;-46
2022/02/06 03:35:37;;;;;;;5.30;2.20;;;;;20.50;99813.00;;;;2054832;28;20774;-46
2022/02/06 03:36:37;;;;;;;2.23;1.50;;;;;20.50;99826.00;;;;2054294;28;20247;-45
2022/02/06 03:37:40;;;;;;;2.50;1.77;;;;;20.50;99809.00;;;;2051440;28;20219;-46
2022/02/06 03:38:40;;;;;;;2.55;1.90;;;;;20.50;99818.00;;;;2054296;28;20219;-45
2022/02/06 03:39:47;;;;;;;3.20;1.80;;;;;20.50;99823.00;;;;2054979;28;20212;-46
2022/02/06 03:41:00;;;;;;;5.05;2.00;;;;;20.50;99817.00;;;;2057201;28;20711;-45
2022/02/06 03:42:10;;;;;;;3.65;2.00;;;;;20.50;99825.00;;;;2061960;28;20947;-45
2022/02/06 03:43:17;;;;;;;2.33;1.60;;;;;20.50;99805.00;;;;2062914;28;20210;-45
2022/02/06 03:44:41;;;;;;;4.38;1.80;;;;;20.40;99821.00;;;;2061686;28;20230;-45
2022/02/06 03:45:52;;;;;;;2.33;1.83;;;;;20.40;99829.00;;;;2062214;28;20215;-45
2022/02/06 03:47:03;;;;;;;2.78;1.85;;;;;20.40;99832.00;;;;2062755;28;20246;-45
2022/02/06 03:48:17;;;;;;;3.40;1.60;;;;;20.40;99804.00;;;;2062101;28;20285;-46
2022/02/06 03:49:28;;;;;;;4.55;1.95;;;;;20.50;99817.00;;;;2059871;28;20566;-45
2022/02/06 03:50:33;;;;;;;2.92;1.85;;;;;20.40;99807.00;;;;2061468;28;20707;-45
2022/02/06 03:51:36;;;;;;;3.53;1.90;;;;;20.40;99819.00;;;;2062709;28;20233;-45
2022/02/06 03:52:44;;;;;;;2.83;2.03;;;;;20.40;99819.00;;;;2060347;28;20666;-45
2022/02/06 03:53:46;;;;;;;4.80;1.92;;;;;20.40;99806.00;;;;2062798;28;20273;-45
2022/02/06 03:54:47;;;;;;;2.50;1.80;;;;;20.40;99804.00;;;;2062534;28;20298;-45
2022/02/06 03:55:48;;;;;;;2.77;1.60;;;;;20.40;99801.00;;;;2062666;28;20749;-45
2022/02/06 03:56:52;;;;;;;4.07;2.10;;;;;20.40;99806.00;;;;2062715;28;20213;-45
2022/02/06 03:57:53;;;;;;;4.45;1.95;;;;;20.40;99808.00;;;;2059952;28;20582;-45
2022/02/06 03:58:53;;;;;;;3.20;1.80;;;;;20.40;99788.00;;;;2060540;28;20214;-45
2022/02/06 03:59:54;;;;;;;3.30;1.77;;;;;20.40;99796.00;;;;2054562;28;20505;-45
2022/02/06 04:00:54;;;;;;;3.17;1.90;;;;;20.40;99798.00;;;;2053844;28;20293;-45
2022/02/06 04:01:54;;;;;;;3.57;1.77;;;;;20.40;99812.00;;;;2062255;28;20758;-45
2022/02/06 04:02:55;;;;;;;3.23;1.73;;;;;20.40;99798.00;;;;2061860;28;20440;-45
2022/02/06 04:03:55;;;;;;;3.43;1.60;;;;;20.40;99796.00;;;;2059409;28;20237;-45
2022/02/06 04:04:56;;;;;;;3.50;1.87;;;;;20.40;99788.00;;;;2053837;28;20223;-45
2022/02/06 04:05:56;;;;;;;3.63;1.80;;;;;20.40;99794.00;;;;2053717;28;20298;-45
2022/02/06 04:07:04;;;;;;;3.00;1.70;;;;;20.40;99790.00;;;;2053188;28;20220;-45
2022/02/06 04:08:07;;;;;;;2.72;1.55;;;;;20.40;99789.00;;;;2047006;28;20227;-45
2022/02/06 04:09:14;;;;;;;2.28;1.60;;;;;20.40;99788.00;;;;2058461;28;20286;-45
2022/02/06 04:10:16;;;;;;;3.53;1.73;;;;;20.40;99775.00;;;;2059080;28;20223;-46
2022/02/06 04:11:25;;;;;;;2.90;1.60;;;;;20.40;99769.00;;;;2062083;28;20211;-45
2022/02/06 04:12:26;;;;;;;2.67;1.58;;;;;20.40;99787.00;;;;2062633;28;20210;-45
2022/02/06 04:13:27;;;;;;;2.75;1.65;;;;;20.40;99780.00;;;;2062535;28;20306;-45
2022/02/06 04:14:31;;;;;;;2.93;1.80;;;;;20.40;99770.00;;;;2054792;28;20227;-46
2022/02/06 04:15:40;;;;;;;3.55;1.85;;;;;20.40;99773.00;;;;2054535;28;20459;-45
2022/02/06 04:16:49;;;;;;;3.95;1.85;;;;;20.40;99766.00;;;;2054517;28;20215;-45
2022/02/06 04:17:56;;;;;;;3.70;1.50;;;;;20.40;99771.00;;;;2053607;28;20219;-45
2022/02/06 04:19:17;;;;;;;3.45;1.85;;;;;20.40;99770.00;;;;2046126;28;20706;-45
2022/02/06 04:20:17;;;;;;;3.35;1.90;;;;;20.40;99782.00;;;;2053686;28;20552;-45
2022/02/06 04:21:18;;;;;;;3.70;1.80;;;;;20.40;99788.00;;;;2054242;28;20258;-45
2022/02/06 04:22:22;;;;;;;2.97;1.80;;;;;20.30;99787.00;;;;2054477;28;20927;-45
2022/02/06 04:23:23;;;;;;;3.72;1.67;;;;;20.40;99777.00;;;;2054213;28;20233;-45
2022/02/06 04:24:24;;;;;;;3.93;2.00;;;;;20.40;99766.00;;;;2054577;28;20219;-45
2022/02/06 04:25:24;;;;;;;3.20;1.65;;;;;20.40;99785.00;;;;2054366;28;20494;-45
2022/02/06 04:26:24;;;;;;;3.43;1.70;;;;;20.40;99792.00;;;;2051820;28;20651;-45
2022/02/06 04:27:25;;;;;;;3.43;1.90;;;;;20.40;99769.00;;;;2054614;28;20660;-46
2022/02/06 04:28:26;;;;;;;2.80;1.60;;;;;20.40;99766.00;;;;2053613;28;20216;-44
2022/02/06 04:29:26;;;;;;;4.20;1.70;;;;;20.40;99763.00;;;;2053890;28;20514;-45
2022/02/06 04:30:27;;;;;;;3.20;1.63;;;;;20.40;99758.00;;;;2053629;28;20211;-45
2022/02/06 04:31:27;;;;;;;3.70;1.80;;;;;20.40;99753.00;;;;2054390;28;20295;-45
2022/02/06 04:32:28;;;;;;;3.40;1.60;;;;;20.30;99758.00;;;;2053844;28;20215;-45
2022/02/06 04:33:28;;;;;;;2.87;1.67;;;;;20.30;99758.00;;;;2053700;28;20208;-45
2022/02/06 04:34:30;;;;;;;4.10;1.53;;;;;20.30;99740.00;;;;2054325;28;20218;-44
2022/02/06 04:35:34;;;;;;;2.05;1.60;;;;;20.30;99755.00;;;;2053193;28;20215;-45
2022/02/06 04:36:46;;;;;;;3.15;1.50;;;;;20.30;99741.00;;;;2053753;28;20703;-45
2022/02/06 04:41:49;;;;;;;3.40;1.77;;;;;20.30;99755.00;;;;2046426;28;20219;-45
2022/02/06 04:54:20;;;;;;;2.30;1.40;;;;;20.30;99710.00;;;;2057122;28;20310;-45
2022/02/06 05:13:52;;;;;;;2.25;1.60;;;;;20.20;99672.00;;;;2061390;28;20897;-45
2022/02/06 05:14:53;;;;;;;2.85;1.70;;;;;20.20;99677.00;;;;2062048;28;20683;-45
2022/02/06 05:18:55;;;;;;;4.20;1.75;;;;;20.20;99694.00;;;;2057770;28;20309;-45
2022/02/06 05:30:56;;;;;;;3.63;1.70;;;;;20.20;99657.00;;;;2040714;28;20204;-46
2022/02/06 05:33:58;;;;;;;2.45;1.55;;;;;20.20;99668.00;;;;2056137;28;20880;-46
2022/02/06 05:34:58;;;;;;;3.28;1.60;;;;;20.20;99646.00;;;;2061910;28;20215;-46
2022/02/06 05:35:59;;;;;;;2.53;1.50;;;;;20.20;99649.00;;;;2061963;28;20219;-46
2022/02/06 05:36:59;;;;;;;2.40;1.40;;;;;20.20;99647.00;;;;2062018;28;20316;-46
2022/02/06 05:37:59;;;;;;;2.10;1.40;;;;;20.20;99635.00;;;;2059699;28;20230;-46
2022/02/06 05:39:00;;;;;;;2.97;1.50;;;;;20.20;99634.00;;;;2053993;28;20584;-46
2022/02/06 05:40:00;;;;;;;2.27;1.20;;;;;20.20;99635.00;;;;2054026;28;20649;-46
2022/02/06 05:41:00;;;;;;;4.67;1.50;;;;;20.20;99643.00;;;;2052248;28;20215;-45
2022/02/06 05:42:01;;;;;;;1.90;1.30;;;;;20.20;99650.00;;;;2053445;28;20232;-46
2022/02/06 05:43:02;;;;;;;3.00;1.30;;;;;20.20;99638.00;;;;2054343;28;20224;-45
2022/02/06 05:44:04;;;;;;;2.73;1.40;;;;;20.20;99642.00;;;;2054138;28;20462;-45
2022/02/06 05:45:04;;;;;;;2.30;1.58;;;;;20.20;99624.00;;;;2053163;28;20237;-46
2022/02/06 05:46:05;;;;;;;1.93;1.30;;;;;20.20;99635.00;;;;2052441;28;20720;-46
2022/02/06 05:47:05;;;;;;;2.23;1.30;;;;;20.20;99644.00;;;;2052755;28;20215;-45
2022/02/06 05:48:05;;;;;;;1.80;1.40;;;;;20.20;99638.00;;;;2053710;28;20254;-45
2022/02/06 05:49:08;;;;;;;2.10;1.37;;;;;20.20;99634.00;;;;2052442;28;20255;-46
2022/02/06 05:50:09;;;;;;;1.25;0.90;;;;;20.20;99525.00;;;;2053872;28;20219;-46
2022/02/06 05:51:09;;;;;;;2.73;1.50;;;;;20.20;99624.00;;;;2052694;28;20266;-46
2022/02/06 05:52:10;;;;;;;2.50;1.53;;;;;20.20;99621.00;;;;2053296;28;20561;-46
2022/02/06 05:53:11;;;;;;;3.40;1.40;;;;;20.20;99622.00;;;;2052304;28;20211;-45
2022/02/06 05:54:11;;;;;;;2.27;1.57;;;;;20.20;99631.00;;;;2053119;28;20220;-45
2022/02/06 05:55:11;;;;;;;3.30;1.60;;;;;20.10;99612.00;;;;2053220;28;20231;-44
2022/02/06 05:56:16;;;;;;;2.30;1.40;;;;;20.10;99618.00;;;;2054822;28;20216;-46
2022/02/06 05:57:16;;;;;;;2.80;1.40;;;;;20.10;99627.00;;;;2054412;28;20294;-48
2022/02/06 05:58:16;;;;;;;2.07;1.30;;;;;20.10;99623.00;;;;2051523;28;20219;-46
2022/02/06 05:59:17;;;;;;;1.87;1.23;;;;;20.20;99628.00;;;;2055500;28;21061;-46
2022/02/06 06:00:17;;;;;;;2.90;1.60;;;;;20.20;99620.00;;;;2054858;28;20242;-46
2022/02/06 06:01:17;;;;;;;3.40;1.40;;;;;20.20;99624.00;;;;2055152;28;20278;-46
2022/02/06 06:02:18;;;;;;;2.43;1.30;;;;;20.20;99621.00;;;;2055523;28;20231;-46
2022/02/06 06:03:18;;;;;;;2.37;1.60;;;;;20.20;99614.00;;;;2055401;28;20238;-46
2022/02/06 06:04:19;;;;;;;2.03;1.10;;;;;20.10;99615.00;;;;2054024;28;20663;-46
2022/02/06 06:05:19;;;;;;;2.57;1.20;;;;;20.10;99613.00;;;;2054044;28;20586;-46
2022/02/06 06:06:21;;;;;;;2.00;1.20;;;;;20.20;99614.00;;;;2060054;28;20218;-46
2022/02/06 06:07:22;;;;;;;2.80;1.20;;;;;20.20;99599.00;;;;2063615;28;20249;-45
2022/02/06 06:08:23;;;;;;;2.67;1.30;;;;;20.20;99606.00;;;;2063387;28;20211;-46
2022/02/06 06:09:23;;;;;;;2.90;1.43;;;;;20.20;99608.00;;;;2063378;28;20211;-46
2022/02/06 06:10:24;;;;;;;3.27;1.50;;;;;20.20;99594.00;;;;2062834;28;20230;-45
2022/02/06 06:11:24;;;;;;;4.73;1.47;;;;;20.20;99591.00;;;;2063328;28;20203;-46
2022/02/06 06:12:24;;;;;;;2.67;1.40;;;;;20.20;99596.00;;;;2063463;28;20213;-46
2022/02/06 06:13:25;;;;;;;2.63;1.20;;;;;20.20;99595.00;;;;2063471;28;20285;-46
2022/02/06 06:14:28;;;;;;;3.73;1.40;;;;;20.20;99583.00;;;;2063300;28;20245;-45
2022/02/06 06:15:30;;;;;;;2.50;1.45;;;;;20.20;99609.00;;;;2063564;28;20214;-46
2022/02/06 06:16:33;;;;;;;2.85;1.17;;;;;20.20;99589.00;;;;2063256;28;20273;-44
2022/02/06 06:17:37;;;;;;;1.60;1.20;;;;;20.20;99581.00;;;;2063494;28;20964;-46
2022/02/06 06:18:38;;;;;;;3.25;1.50;;;;;20.30;99595.00;;;;2060416;28;20249;-46
2022/02/06 06:19:42;;;;;;;2.00;1.50;;;;;20.30;99580.00;;;;2063337;28;21385;-45
2022/02/06 06:20:45;;;;;;;2.22;1.23;;;;;20.30;99586.00;;;;2061130;28;20219;-46
2022/02/06 06:21:47;;;;;;;2.92;1.33;;;;;20.30;99605.00;;;;2063424;28;20206;-46
2022/02/06 06:22:51;;;;;;;2.80;1.50;;;;;20.30;99583.00;;;;2062748;28;20270;-45
2022/02/06 06:23:54;;;;;;;1.73;1.25;;;;;20.30;99584.00;;;;2056599;28;20588;-46
2022/02/06 06:24:57;;;;;;;1.83;1.08;;;;;20.30;99585.00;;;;2062206;28;20261;-46
2022/02/06 06:25:57;;;;;;;2.20;1.20;;;;;20.10;99580.00;;;;2062743;28;21195;-45
2022/02/06 06:26:57;;;;;;;2.20;1.27;;;;;20.30;99587.00;;;;2063601;28;20218;-46
2022/02/06 06:27:58;;;;;;;1.60;1.20;;;;;20.30;99600.00;;;;2063444;28;20211;-46
2022/02/06 06:28:58;;;;;;;3.10;1.33;;;;;20.30;99588.00;;;;2062257;28;20274;-45
2022/02/06 06:29:58;;;;;;;2.20;1.17;;;;;20.30;99591.00;;;;2063415;28;20269;-45
2022/02/06 06:30:59;;;;;;;1.83;1.10;;;;;20.30;99592.00;;;;2062397;28;20210;-45
2022/02/06 06:32:00;;;;;;;2.13;1.20;;;;;20.30;99579.00;;;;2063147;28;20231;-45
2022/02/06 06:33:04;;;;;;;2.13;1.05;;;;;20.30;99581.00;;;;2062597;28;20222;-45
2022/02/06 06:34:04;;;;;;;1.92;1.15;;;;;20.30;99577.00;;;;2050711;28;20236;-46
2022/02/06 06:35:06;;;;;;;2.10;1.27;;;;;20.30;99572.00;;;;2045542;28;20292;-46
2022/02/06 06:36:06;;;;;;;2.88;1.15;;;;;20.40;99561.00;;;;2054205;28;20295;-46
2022/02/06 06:37:07;;;;;;;2.70;1.10;;;;;20.40;99564.00;;;;2053137;28;20230;-46
2022/02/06 06:38:07;;;;;;;2.80;1.10;;;;;20.40;99571.00;;;;2049462;28;20699;-46
2022/02/06 06:39:09;;;;;;;2.73;1.00;;;;;20.40;99565.00;;;;2054869;28;20222;-46
2022/02/06 06:40:10;;;;;;;1.85;1.10;;;;;20.20;99534.00;;;;2055110;28;20207;-46
2022/02/06 06:41:10;;;;;;;2.63;1.30;;;;;20.40;99561.00;;;;2045785;28;20692;-46
2022/02/06 06:42:11;;;;;;;3.00;1.03;;;;;20.40;99564.00;;;;2046632;28;20638;-46
2022/02/06 06:43:12;;;;;;;1.63;1.30;;;;;20.40;99562.00;;;;2055335;28;20220;-46
2022/02/06 06:44:12;;;;;;;1.23;0.80;;;;;20.40;99561.00;;;;2051179;28;20859;-47
2022/02/06 06:45:12;;;;;;;2.07;1.30;;;;;20.40;99552.00;;;;2054289;28;20219;-45
2022/02/06 06:46:14;;;;;;;2.07;0.90;;;;;20.40;99564.00;;;;2054168;28;20227;-46
2022/02/06 06:47:15;;;;;;;1.30;0.90;;;;;20.40;99551.00;;;;2055119;28;20953;-46
2022/02/06 06:48:15;;;;;;;1.98;0.98;;;;;20.40;99546.00;;;;2054469;28;20258;-46
2022/02/06 06:49:16;;;;;;;1.80;1.03;;;;;20.40;99542.00;;;;2058827;28;20206;-45
2022/02/06 06:50:16;;;;;;;1.20;1.00;;;;;20.40;99539.00;;;;2062313;28;20215;-46
2022/02/06 06:51:16;;;;;;;2.60;1.20;;;;;20.50;99544.00;;;;2062412;28;20579;-46
2022/02/06 06:52:17;;;;;;;2.10;1.10;;;;;20.40;99540.00;;;;2062291;28;20229;-46
2022/02/06 06:53:17;;;;;;;2.63;1.10;;;;;20.50;99555.00;;;;2060304;28;20671;-46
2022/02/06 06:54:22;;;;;;;1.87;1.30;;;;;20.50;99543.00;;;;2062819;28;20619;-46
2022/02/06 06:55:22;;;;;;;1.35;0.70;;;;;20.50;99541.00;;;;2063219;28;20211;-45
2022/02/06 06:56:32;;;;;;;1.77;0.93;;;;;20.40;99538.00;;;;2063204;28;20605;-46
2022/02/06 06:57:39;;;;;;;2.10;1.20;;;;;20.50;99543.00;;;;2056434;28;20207;-46
2022/02/06 06:58:44;;;;;;;1.30;1.00;;;;;20.50;99524.00;;;;2059888;28;20228;-46
2022/02/06 07:00:20;;;;;;;1.95;1.13;;;;;20.50;99525.00;;;;2059321;28;20273;-46
2022/02/06 07:02:29;;;;;;;1.20;0.98;;;;;20.50;99520.00;;;;2055273;28;20301;-46
2022/02/06 07:03:31;;;;;;;1.60;1.10;;;;;20.50;99505.00;;;;2062775;28;20285;-46
2022/02/06 07:04:31;;;;;;;2.03;1.20;;;;;20.50;99526.00;;;;2063180;28;20230;-45
2022/02/06 07:05:32;;;;;;;2.40;1.20;;;;;20.50;99516.00;;;;2063088;28;20722;-45
2022/02/06 07:06:33;;;;;;;2.00;0.77;;;;;20.50;99522.00;;;;2063119;28;20679;-46
2022/02/06 07:07:34;;;;;;;1.73;1.00;;;;;20.50;99546.00;;;;2062676;28;20262;-46
2022/02/06 07:08:35;;;;;;;1.35;0.75;;;;;20.50;99525.00;;;;2062016;28;20270;-46
2022/02/06 07:09:35;;;;;;;1.30;0.87;;;;;20.50;99524.00;;;;2057615;28;20996;-46
2022/02/06 07:10:36;;;;;;;2.30;1.13;;;;;20.50;99521.00;;;;2062221;28;20233;-46
2022/02/06 07:11:36;;;;;;;2.27;0.90;;;;;20.50;99537.00;;;;2063190;28;20311;-45
2022/02/06 07:12:37;;;;;;;1.37;1.00;;;;;20.50;99511.00;;;;2063165;28;20458;-47